sensor_id;sensor_type;location;lat;lon;timestamp;temperature;humidity
49236;DHT22;35067;48.134;8.378;2022-09-27T00:01:17;8.00;99.90
49236;DHT22;35067;48.134;8.378;2022-09-27T00:03:18;8.00;99.90
49236;DHT22;35067;48.134;8.378;2022-09-27T00:05:19;8.10;99.90
49236;DHT22;35067;48.134;8.378;2022-09-27T00:07:19;8.10;99.90
49236;DHT22;35067;48.134;8.378;2022-09-27T00:09:20;8.10;99.90
49236;DHT22;35067;48.134;8.378;2022-09-27T00:11:33;8.00;99.90
49236;DHT22;35067;48.134;8.378;2022-09-27T00:13:34;8.00;99.90
49236;DHT22;35067;48.134;8.378;2022-09-27T00:15:35;8.10;99.90
49236;DHT22;35067;48.134;8.378;2022-09-27T00:17:37;8.10;99.90
49236;DHT22;35067;48.134;8.378;2022-09-27T00:19:38;8.10;99.90
49236;DHT22;35067;48.134;8.378;2022-09-27T00:21:39;8.10;99.90
49236;DHT22;35067;48.134;8.378;2022-09-27T00:23:40;8.10;99.90
49236;DHT22;35067;48.134;8.378;2022-09-27T00:25:40;8.20;99.90
49236;DHT22;35067;48.134;8.378;2022-09-27T00:27:41;8.20;99.90
49236;DHT22;35067;48.134;8.378;2022-09-27T00:29:42;8.20;99.90
49236;DHT22;35067;48.134;8.378;2022-09-27T00:31:43;8.20;99.90
49236;DHT22;35067;48.134;8.378;2022-09-27T00:33:43;8.20;99.90
49236;DHT22;35067;48.134;8.378;2022-09-27T00:35:44;8.20;99.90
49236;DHT22;35067;48.134;8.378;2022-09-27T00:37:47;8.20;99.90
49236;DHT22;35067;48.134;8.378;2022-09-27T00:39:48;8.20;99.90
49236;DHT22;35067;48.134;8.378;2022-09-27T00:41:48;8.20;99.90
49236;DHT22;35067;48.134;8.378;2022-09-27T00:44:52;8.20;99.90
49236;DHT22;35067;48.134;8.378;2022-09-27T00:46:28;8.20;99.90
49236;DHT22;35067;48.134;8.378;2022-09-27T00:48:32;8.20;99.90
49236;DHT22;35067;48.134;8.378;2022-09-27T00:50:37;8.20;99.90
49236;DHT22;35067;48.134;8.378;2022-09-27T00:52:50;8.20;99.90
49236;DHT22;35067;48.134;8.378;2022-09-27T00:55:02;8.20;99.90
49236;DHT22;35067;48.134;8.378;2022-09-27T00:57:04;8.30;99.90
49236;DHT22;35067;48.134;8.378;2022-09-27T00:59:16;8.30;99.90
49236;DHT22;35067;48.134;8.378;2022-09-27T01:01:18;8.30;99.90
49236;DHT22;35067;48.134;8.378;2022-09-27T01:04:09;8.30;99.90
49236;DHT22;35067;48.134;8.378;2022-09-27T01:05:44;8.30;99.90
49236;DHT22;35067;48.134;8.378;2022-09-27T01:07:45;8.30;99.90
49236;DHT22;35067;48.134;8.378;2022-09-27T01:09:46;8.20;99.90
49236;DHT22;35067;48.134;8.378;2022-09-27T01:14:23;8.20;99.90
49236;DHT22;35067;48.134;8.378;2022-09-27T01:16:35;8.20;99.90
49236;DHT22;35067;48.134;8.378;2022-09-27T01:21:54;8.30;99.90
49236;DHT22;35067;48.134;8.378;2022-09-27T01:24:23;8.30;99.90
49236;DHT22;35067;48.134;8.378;2022-09-27T01:29:10;8.30;99.90
49236;DHT22;35067;48.134;8.378;2022-09-27T01:31:22;8.30;99.90
49236;DHT22;35067;48.134;8.378;2022-09-27T01:38:10;8.30;99.90
49236;DHT22;35067;48.134;8.378;2022-09-27T01:40:26;8.20;99.90
49236;DHT22;35067;48.134;8.378;2022-09-27T01:47:14;8.10;99.90
49236;DHT22;35067;48.134;8.378;2022-09-27T01:49:23;7.90;99.90
49236;DHT22;35067;48.134;8.378;2022-09-27T01:51:32;7.80;99.90
49236;DHT22;35067;48.134;8.378;2022-09-27T01:53:45;7.80;99.90
49236;DHT22;35067;48.134;8.378;2022-09-27T01:55:48;7.60;99.90
49236;DHT22;35067;48.134;8.378;2022-09-27T01:58:01;7.60;99.90
49236;DHT22;35067;48.134;8.378;2022-09-27T02:00:05;7.70;99.90
49236;DHT22;35067;48.134;8.378;2022-09-27T02:02:08;7.70;99.90
49236;DHT22;35067;48.134;8.378;2022-09-27T02:04:12;7.70;99.90
49236;DHT22;35067;48.134;8.378;2022-09-27T02:06:19;7.60;99.90
49236;DHT22;35067;48.134;8.378;2022-09-27T02:08:55;7.60;99.90
49236;DHT22;35067;48.134;8.378;2022-09-27T02:10:59;7.60;99.90
49236;DHT22;35067;48.134;8.378;2022-09-27T02:13:06;7.60;99.90
49236;DHT22;35067;48.134;8.378;2022-09-27T02:15:12;7.60;99.90
49236;DHT22;35067;48.134;8.378;2022-09-27T02:20:17;7.50;99.90
49236;DHT22;35067;48.134;8.378;2022-09-27T02:22:33;7.40;99.90
49236;DHT22;35067;48.134;8.378;2022-09-27T02:24:55;7.20;99.90
49236;DHT22;35067;48.134;8.378;2022-09-27T02:27:11;7.20;99.90
49236;DHT22;35067;48.134;8.378;2022-09-27T02:29:26;7.30;99.90
49236;DHT22;35067;48.134;8.378;2022-09-27T02:31:29;7.30;99.90
49236;DHT22;35067;48.134;8.378;2022-09-27T02:35:58;7.30;99.90
49236;DHT22;35067;48.134;8.378;2022-09-27T02:37:58;7.30;99.90
49236;DHT22;35067;48.134;8.378;2022-09-27T02:40:00;7.20;99.90
49236;DHT22;35067;48.134;8.378;2022-09-27T02:42:01;7.20;99.90
49236;DHT22;35067;48.134;8.378;2022-09-27T02:44:07;7.20;99.90
49236;DHT22;35067;48.134;8.378;2022-09-27T02:48:30;7.30;99.90
49236;DHT22;35067;48.134;8.378;2022-09-27T02:51:17;7.20;99.90
49236;DHT22;35067;48.134;8.378;2022-09-27T02:55:51;7.20;99.90
49236;DHT22;35067;48.134;8.378;2022-09-27T02:58:33;7.20;99.90
49236;DHT22;35067;48.134;8.378;2022-09-27T03:05:07;7.20;99.90
49236;DHT22;35067;48.134;8.378;2022-09-27T03:07:08;7.20;99.90
49236;DHT22;35067;48.134;8.378;2022-09-27T03:09:23;7.10;99.90
49236;DHT22;35067;48.134;8.378;2022-09-27T03:11:24;7.30;99.90
49236;DHT22;35067;48.134;8.378;2022-09-27T03:13:25;7.40;99.90
49236;DHT22;35067;48.134;8.378;2022-09-27T03:15:26;7.30;99.90
49236;DHT22;35067;48.134;8.378;2022-09-27T03:17:26;7.20;99.90
49236;DHT22;35067;48.134;8.378;2022-09-27T03:19:27;7.20;99.90
49236;DHT22;35067;48.134;8.378;2022-09-27T03:21:27;7.20;99.90
49236;DHT22;35067;48.134;8.378;2022-09-27T03:23:28;7.20;99.90
49236;DHT22;35067;48.134;8.378;2022-09-27T03:25:29;7.10;99.90
49236;DHT22;35067;48.134;8.378;2022-09-27T03:27:29;7.10;99.90
49236;DHT22;35067;48.134;8.378;2022-09-27T03:29:30;7.10;99.90
49236;DHT22;35067;48.134;8.378;2022-09-27T03:31:31;7.00;99.90
49236;DHT22;35067;48.134;8.378;2022-09-27T03:33:31;7.10;99.90
49236;DHT22;35067;48.134;8.378;2022-09-27T03:35:32;7.10;99.90
49236;DHT22;35067;48.134;8.378;2022-09-27T03:37:33;7.10;99.90
49236;DHT22;35067;48.134;8.378;2022-09-27T03:39:34;7.10;99.90
49236;DHT22;35067;48.134;8.378;2022-09-27T03:41:34;7.10;99.90
49236;DHT22;35067;48.134;8.378;2022-09-27T03:43:35;7.10;99.90
49236;DHT22;35067;48.134;8.378;2022-09-27T03:45:35;7.10;99.90
49236;DHT22;35067;48.134;8.378;2022-09-27T03:47:39;7.10;99.90
49236;DHT22;35067;48.134;8.378;2022-09-27T03:49:40;7.10;99.90
49236;DHT22;35067;48.134;8.378;2022-09-27T03:51:41;7.30;99.90
49236;DHT22;35067;48.134;8.378;2022-09-27T03:53:41;7.30;99.90
49236;DHT22;35067;48.134;8.378;2022-09-27T03:55:44;7.20;99.90
49236;DHT22;35067;48.134;8.378;2022-09-27T03:57:45;7.20;99.90
49236;DHT22;35067;48.134;8.378;2022-09-27T03:59:46;7.10;99.90
49236;DHT22;35067;48.134;8.378;2022-09-27T04:01:46;7.10;99.90
49236;DHT22;35067;48.134;8.378;2022-09-27T04:03:47;7.10;99.90
49236;DHT22;35067;48.134;8.378;2022-09-27T04:05:48;7.10;99.90
49236;DHT22;35067;48.134;8.378;2022-09-27T04:07:48;7.20;99.90
49236;DHT22;35067;48.134;8.378;2022-09-27T04:09:49;7.00;99.90
49236;DHT22;35067;48.134;8.378;2022-09-27T04:11:49;6.90;99.90
49236;DHT22;35067;48.134;8.378;2022-09-27T04:13:50;6.90;99.90
49236;DHT22;35067;48.134;8.378;2022-09-27T04:15:51;6.90;99.90
49236;DHT22;35067;48.134;8.378;2022-09-27T04:17:51;6.80;99.90
49236;DHT22;35067;48.134;8.378;2022-09-27T04:19:52;6.80;99.90
49236;DHT22;35067;48.134;8.378;2022-09-27T04:21:52;6.80;99.90
49236;DHT22;35067;48.134;8.378;2022-09-27T04:23:53;6.80;99.90
49236;DHT22;35067;48.134;8.378;2022-09-27T04:25:53;6.80;99.90
49236;DHT22;35067;48.134;8.378;2022-09-27T04:27:54;6.90;99.90
49236;DHT22;35067;48.134;8.378;2022-09-27T04:29:55;7.00;99.90
49236;DHT22;35067;48.134;8.378;2022-09-27T04:31:55;6.90;99.90
49236;DHT22;35067;48.134;8.378;2022-09-27T04:33:56;7.00;99.90
49236;DHT22;35067;48.134;8.378;2022-09-27T04:35:58;7.00;99.90
49236;DHT22;35067;48.134;8.378;2022-09-27T04:38:17;6.90;99.90
49236;DHT22;35067;48.134;8.378;2022-09-27T04:40:21;6.80;99.90
49236;DHT22;35067;48.134;8.378;2022-09-27T04:42:22;6.70;99.90
49236;DHT22;35067;48.134;8.378;2022-09-27T04:44:23;6.50;99.90
49236;DHT22;35067;48.134;8.378;2022-09-27T04:46:23;6.40;99.90
49236;DHT22;35067;48.134;8.378;2022-09-27T04:48:24;6.40;99.90
49236;DHT22;35067;48.134;8.378;2022-09-27T04:50:25;6.40;99.90
49236;DHT22;35067;48.134;8.378;2022-09-27T04:52:26;6.40;99.90
49236;DHT22;35067;48.134;8.378;2022-09-27T04:54:26;6.20;99.90
49236;DHT22;35067;48.134;8.378;2022-09-27T04:56:27;6.20;99.90
49236;DHT22;35067;48.134;8.378;2022-09-27T04:58:27;6.00;99.90
49236;DHT22;35067;48.134;8.378;2022-09-27T05:00:29;6.10;99.90
49236;DHT22;35067;48.134;8.378;2022-09-27T05:02:29;6.10;99.90
49236;DHT22;35067;48.134;8.378;2022-09-27T05:04:30;6.20;99.90
49236;DHT22;35067;48.134;8.378;2022-09-27T05:06:31;6.10;99.90
49236;DHT22;35067;48.134;8.378;2022-09-27T05:08:32;6.20;99.90
49236;DHT22;35067;48.134;8.378;2022-09-27T05:10:32;6.20;99.90
49236;DHT22;35067;48.134;8.378;2022-09-27T05:12:33;6.30;99.90
49236;DHT22;35067;48.134;8.378;2022-09-27T05:14:33;6.40;99.90
49236;DHT22;35067;48.134;8.378;2022-09-27T05:16:34;6.40;99.90
49236;DHT22;35067;48.134;8.378;2022-09-27T05:18:38;6.50;99.90
49236;DHT22;35067;48.134;8.378;2022-09-27T05:20:38;6.50;99.90
49236;DHT22;35067;48.134;8.378;2022-09-27T05:22:39;6.40;99.90
49236;DHT22;35067;48.134;8.378;2022-09-27T05:24:40;6.40;99.90
49236;DHT22;35067;48.134;8.378;2022-09-27T05:26:40;6.50;99.90
49236;DHT22;35067;48.134;8.378;2022-09-27T05:28:41;6.50;99.90
49236;DHT22;35067;48.134;8.378;2022-09-27T05:30:43;6.40;99.90
49236;DHT22;35067;48.134;8.378;2022-09-27T05:32:44;6.40;99.90
49236;DHT22;35067;48.134;8.378;2022-09-27T05:34:47;6.50;99.90
49236;DHT22;35067;48.134;8.378;2022-09-27T05:36:49;6.60;99.90
49236;DHT22;35067;48.134;8.378;2022-09-27T05:38:49;6.50;99.90
49236;DHT22;35067;48.134;8.378;2022-09-27T05:40:50;6.40;99.90
49236;DHT22;35067;48.134;8.378;2022-09-27T05:42:51;6.50;99.90
49236;DHT22;35067;48.134;8.378;2022-09-27T05:44:52;6.40;99.90
49236;DHT22;35067;48.134;8.378;2022-09-27T05:46:53;6.30;99.90
49236;DHT22;35067;48.134;8.378;2022-09-27T05:48:53;6.30;99.90
49236;DHT22;35067;48.134;8.378;2022-09-27T05:50:54;6.40;99.90
49236;DHT22;35067;48.134;8.378;2022-09-27T05:52:54;6.40;99.90
49236;DHT22;35067;48.134;8.378;2022-09-27T05:54:55;6.40;99.90
49236;DHT22;35067;48.134;8.378;2022-09-27T05:56:56;6.30;99.90
49236;DHT22;35067;48.134;8.378;2022-09-27T05:58:59;6.20;99.90
49236;DHT22;35067;48.134;8.378;2022-09-27T06:01:00;6.10;99.90
49236;DHT22;35067;48.134;8.378;2022-09-27T06:03:03;6.10;99.90
49236;DHT22;35067;48.134;8.378;2022-09-27T06:05:04;6.10;99.90
49236;DHT22;35067;48.134;8.378;2022-09-27T06:07:06;6.10;99.90
49236;DHT22;35067;48.134;8.378;2022-09-27T06:09:12;6.10;99.90
49236;DHT22;35067;48.134;8.378;2022-09-27T06:11:13;6.00;99.90
49236;DHT22;35067;48.134;8.378;2022-09-27T06:13:15;5.90;99.90
49236;DHT22;35067;48.134;8.378;2022-09-27T06:15:15;5.80;99.90
49236;DHT22;35067;48.134;8.378;2022-09-27T06:17:16;5.80;99.90
49236;DHT22;35067;48.134;8.378;2022-09-27T06:19:17;5.90;99.90
49236;DHT22;35067;48.134;8.378;2022-09-27T06:21:17;5.90;99.90
49236;DHT22;35067;48.134;8.378;2022-09-27T06:23:20;5.90;99.90
49236;DHT22;35067;48.134;8.378;2022-09-27T06:25:21;6.00;99.90
49236;DHT22;35067;48.134;8.378;2022-09-27T06:27:22;6.10;99.90
49236;DHT22;35067;48.134;8.378;2022-09-27T06:29:23;6.20;99.90
49236;DHT22;35067;48.134;8.378;2022-09-27T06:31:23;6.30;99.90
49236;DHT22;35067;48.134;8.378;2022-09-27T06:33:24;6.30;99.90
49236;DHT22;35067;48.134;8.378;2022-09-27T06:35:26;6.40;99.90
49236;DHT22;35067;48.134;8.378;2022-09-27T06:37:27;6.40;99.90
49236;DHT22;35067;48.134;8.378;2022-09-27T06:39:27;6.50;99.90
49236;DHT22;35067;48.134;8.378;2022-09-27T06:41:28;6.60;99.90
49236;DHT22;35067;48.134;8.378;2022-09-27T06:43:29;6.60;99.90
49236;DHT22;35067;48.134;8.378;2022-09-27T06:45:31;6.50;99.90
49236;DHT22;35067;48.134;8.378;2022-09-27T06:47:36;6.60;99.90
49236;DHT22;35067;48.134;8.378;2022-09-27T06:49:36;6.70;99.90
49236;DHT22;35067;48.134;8.378;2022-09-27T06:51:37;6.70;99.90
49236;DHT22;35067;48.134;8.378;2022-09-27T06:53:37;6.90;99.90
49236;DHT22;35067;48.134;8.378;2022-09-27T06:55:38;6.90;99.90
49236;DHT22;35067;48.134;8.378;2022-09-27T06:57:39;6.90;99.90
49236;DHT22;35067;48.134;8.378;2022-09-27T06:59:58;6.90;99.90
49236;DHT22;35067;48.134;8.378;2022-09-27T07:02:17;6.80;99.90
49236;DHT22;35067;48.134;8.378;2022-09-27T07:04:18;6.70;99.90
49236;DHT22;35067;48.134;8.378;2022-09-27T07:06:20;6.70;99.90
49236;DHT22;35067;48.134;8.378;2022-09-27T07:08:24;6.70;99.90
49236;DHT22;35067;48.134;8.378;2022-09-27T07:10:29;6.70;99.90
49236;DHT22;35067;48.134;8.378;2022-09-27T07:12:35;6.50;99.90
49236;DHT22;35067;48.134;8.378;2022-09-27T07:14:35;6.40;99.90
49236;DHT22;35067;48.134;8.378;2022-09-27T07:16:36;6.20;99.90
49236;DHT22;35067;48.134;8.378;2022-09-27T07:18:38;6.20;99.90
49236;DHT22;35067;48.134;8.378;2022-09-27T07:20:38;6.30;99.90
49236;DHT22;35067;48.134;8.378;2022-09-27T07:22:43;6.30;99.90
49236;DHT22;35067;48.134;8.378;2022-09-27T07:24:44;6.30;99.90
49236;DHT22;35067;48.134;8.378;2022-09-27T07:26:46;6.40;99.90
49236;DHT22;35067;48.134;8.378;2022-09-27T07:28:47;6.60;99.90
49236;DHT22;35067;48.134;8.378;2022-09-27T07:30:47;6.70;99.90
49236;DHT22;35067;48.134;8.378;2022-09-27T07:32:48;6.70;99.90
49236;DHT22;35067;48.134;8.378;2022-09-27T07:34:49;6.90;99.90
49236;DHT22;35067;48.134;8.378;2022-09-27T07:36:49;7.00;99.90
49236;DHT22;35067;48.134;8.378;2022-09-27T07:38:50;7.10;99.90
49236;DHT22;35067;48.134;8.378;2022-09-27T07:40:51;7.10;99.90
49236;DHT22;35067;48.134;8.378;2022-09-27T07:42:56;7.30;99.90
49236;DHT22;35067;48.134;8.378;2022-09-27T07:44:57;7.50;99.90
49236;DHT22;35067;48.134;8.378;2022-09-27T07:46:57;7.50;99.90
49236;DHT22;35067;48.134;8.378;2022-09-27T07:48:58;7.50;99.90
49236;DHT22;35067;48.134;8.378;2022-09-27T07:50:59;7.60;99.90
49236;DHT22;35067;48.134;8.378;2022-09-27T07:52:59;7.80;99.90
49236;DHT22;35067;48.134;8.378;2022-09-27T07:55:00;7.50;99.90
49236;DHT22;35067;48.134;8.378;2022-09-27T07:57:00;7.70;99.90
49236;DHT22;35067;48.134;8.378;2022-09-27T07:59:02;7.70;99.90
49236;DHT22;35067;48.134;8.378;2022-09-27T08:01:03;7.70;99.90
49236;DHT22;35067;48.134;8.378;2022-09-27T08:03:09;7.70;99.90
49236;DHT22;35067;48.134;8.378;2022-09-27T08:05:12;7.70;99.90
49236;DHT22;35067;48.134;8.378;2022-09-27T08:07:13;7.50;99.90
49236;DHT22;35067;48.134;8.378;2022-09-27T08:09:13;7.30;99.90
49236;DHT22;35067;48.134;8.378;2022-09-27T08:11:15;7.30;99.90
49236;DHT22;35067;48.134;8.378;2022-09-27T08:13:16;7.10;99.90
49236;DHT22;35067;48.134;8.378;2022-09-27T08:15:19;7.10;99.90
49236;DHT22;35067;48.134;8.378;2022-09-27T08:17:20;7.20;99.90
49236;DHT22;35067;48.134;8.378;2022-09-27T08:19:21;7.20;99.90
49236;DHT22;35067;48.134;8.378;2022-09-27T08:21:22;7.00;99.90
49236;DHT22;35067;48.134;8.378;2022-09-27T08:23:22;7.00;99.90
49236;DHT22;35067;48.134;8.378;2022-09-27T08:25:23;6.90;99.90
49236;DHT22;35067;48.134;8.378;2022-09-27T08:27:24;6.90;99.90
49236;DHT22;35067;48.134;8.378;2022-09-27T08:29:25;6.90;99.90
49236;DHT22;35067;48.134;8.378;2022-09-27T08:31:25;7.00;99.90
49236;DHT22;35067;48.134;8.378;2022-09-27T08:33:26;7.20;99.90
49236;DHT22;35067;48.134;8.378;2022-09-27T08:35:27;7.20;99.90
49236;DHT22;35067;48.134;8.378;2022-09-27T08:37:28;7.30;99.90
49236;DHT22;35067;48.134;8.378;2022-09-27T08:39:29;7.20;99.90
49236;DHT22;35067;48.134;8.378;2022-09-27T08:48:26;7.10;99.90
49236;DHT22;35067;48.134;8.378;2022-09-27T08:50:31;7.30;99.90
49236;DHT22;35067;48.134;8.378;2022-09-27T08:52:38;7.50;99.90
49236;DHT22;35067;48.134;8.378;2022-09-27T08:54:44;7.40;99.90
49236;DHT22;35067;48.134;8.378;2022-09-27T08:56:46;7.40;99.90
49236;DHT22;35067;48.134;8.378;2022-09-27T08:58:52;7.70;99.90
49236;DHT22;35067;48.134;8.378;2022-09-27T09:00:58;7.90;99.90
49236;DHT22;35067;48.134;8.378;2022-09-27T09:03:01;8.10;99.90
49236;DHT22;35067;48.134;8.378;2022-09-27T09:05:12;8.10;99.90
49236;DHT22;35067;48.134;8.378;2022-09-27T09:12:53;8.70;99.60
49236;DHT22;35067;48.134;8.378;2022-09-27T09:18:00;9.30;99.90
49236;DHT22;35067;48.134;8.378;2022-09-27T09:20:00;9.00;99.90
49236;DHT22;35067;48.134;8.378;2022-09-27T09:27:39;8.50;99.90
49236;DHT22;35067;48.134;8.378;2022-09-27T09:29:57;8.30;99.90
49236;DHT22;35067;48.134;8.378;2022-09-27T09:32:11;8.30;99.90
49236;DHT22;35067;48.134;8.378;2022-09-27T09:34:22;8.50;99.90
49236;DHT22;35067;48.134;8.378;2022-09-27T09:36:39;8.70;99.80
49236;DHT22;35067;48.134;8.378;2022-09-27T09:38:47;8.80;98.70
49236;DHT22;35067;48.134;8.378;2022-09-27T09:40:59;8.90;99.20
49236;DHT22;35067;48.134;8.378;2022-09-27T09:43:06;9.00;98.10
49236;DHT22;35067;48.134;8.378;2022-09-27T09:49:29;8.80;99.70
49236;DHT22;35067;48.134;8.378;2022-09-27T09:51:41;8.70;99.50
49236;DHT22;35067;48.134;8.378;2022-09-27T09:58:27;8.70;98.40
49236;DHT22;35067;48.134;8.378;2022-09-27T10:00:29;8.70;98.10
49236;DHT22;35067;48.134;8.378;2022-09-27T10:02:34;8.40;98.50
49236;DHT22;35067;48.134;8.378;2022-09-27T10:04:35;8.50;98.70
49236;DHT22;35067;48.134;8.378;2022-09-27T10:06:35;8.90;98.10
49236;DHT22;35067;48.134;8.378;2022-09-27T10:08:36;9.30;96.60
49236;DHT22;35067;48.134;8.378;2022-09-27T10:10:36;9.90;96.30
49236;DHT22;35067;48.134;8.378;2022-09-27T10:12:37;9.90;96.00
49236;DHT22;35067;48.134;8.378;2022-09-27T10:14:39;10.50;95.50
49236;DHT22;35067;48.134;8.378;2022-09-27T10:16:43;11.10;91.70
49236;DHT22;35067;48.134;8.378;2022-09-27T10:18:48;11.00;88.40
49236;DHT22;35067;48.134;8.378;2022-09-27T10:20:55;10.60;90.00
49236;DHT22;35067;48.134;8.378;2022-09-27T10:23:03;10.40;91.70
49236;DHT22;35067;48.134;8.378;2022-09-27T10:25:06;10.10;90.80
49236;DHT22;35067;48.134;8.378;2022-09-27T10:27:07;10.30;92.40
49236;DHT22;35067;48.134;8.378;2022-09-27T10:31:34;11.60;83.40
49236;DHT22;35067;48.134;8.378;2022-09-27T10:33:38;11.80;81.10
49236;DHT22;35067;48.134;8.378;2022-09-27T10:35:42;11.60;85.40
49236;DHT22;35067;48.134;8.378;2022-09-27T10:37:44;11.70;80.20
49236;DHT22;35067;48.134;8.378;2022-09-27T10:39:46;11.50;81.50
49236;DHT22;35067;48.134;8.378;2022-09-27T10:41:47;10.80;84.50
49236;DHT22;35067;48.134;8.378;2022-09-27T10:43:47;12.00;84.20
49236;DHT22;35067;48.134;8.378;2022-09-27T10:45:48;13.10;74.70
49236;DHT22;35067;48.134;8.378;2022-09-27T10:47:49;13.30;72.60
49236;DHT22;35067;48.134;8.378;2022-09-27T10:49:50;13.80;72.30
49236;DHT22;35067;48.134;8.378;2022-09-27T10:51:58;12.60;70.50
49236;DHT22;35067;48.134;8.378;2022-09-27T10:53:59;12.50;77.60
49236;DHT22;35067;48.134;8.378;2022-09-27T10:56:01;12.10;80.00
49236;DHT22;35067;48.134;8.378;2022-09-27T10:58:02;11.10;79.40
49236;DHT22;35067;48.134;8.378;2022-09-27T11:00:07;10.50;86.90
49236;DHT22;35067;48.134;8.378;2022-09-27T11:02:26;10.40;87.20
49236;DHT22;35067;48.134;8.378;2022-09-27T11:04:33;10.50;88.40
49236;DHT22;35067;48.134;8.378;2022-09-27T11:06:35;10.70;91.20
49236;DHT22;35067;48.134;8.378;2022-09-27T11:08:37;11.00;84.90
49236;DHT22;35067;48.134;8.378;2022-09-27T11:10:38;10.50;90.10
49236;DHT22;35067;48.134;8.378;2022-09-27T11:12:39;10.00;90.10
49236;DHT22;35067;48.134;8.378;2022-09-27T11:14:41;10.10;92.20
49236;DHT22;35067;48.134;8.378;2022-09-27T11:21:45;11.80;87.20
49236;DHT22;35067;48.134;8.378;2022-09-27T11:24:10;11.90;82.50
49236;DHT22;35067;48.134;8.378;2022-09-27T11:30:55;11.00;85.60
49236;DHT22;35067;48.134;8.378;2022-09-27T11:37:15;11.40;84.40
49236;DHT22;35067;48.134;8.378;2022-09-27T11:42:23;10.30;92.70
49236;DHT22;35067;48.134;8.378;2022-09-27T11:52:16;8.70;99.90
49236;DHT22;35067;48.134;8.378;2022-09-27T11:57:24;8.80;99.90
49236;DHT22;35067;48.134;8.378;2022-09-27T12:06:37;8.40;99.90
49236;DHT22;35067;48.134;8.378;2022-09-27T12:09:10;8.40;99.90
49236;DHT22;35067;48.134;8.378;2022-09-27T12:11:20;8.30;99.90
49236;DHT22;35067;48.134;8.378;2022-09-27T12:13:44;8.40;99.90
49236;DHT22;35067;48.134;8.378;2022-09-27T12:15:47;8.20;99.90
49236;DHT22;35067;48.134;8.378;2022-09-27T12:17:54;8.40;99.90
49236;DHT22;35067;48.134;8.378;2022-09-27T12:19:58;8.40;99.90
49236;DHT22;35067;48.134;8.378;2022-09-27T12:22:02;8.10;99.90
49236;DHT22;35067;48.134;8.378;2022-09-27T12:24:08;7.80;99.90
49236;DHT22;35067;48.134;8.378;2022-09-27T12:26:24;7.60;99.90
49236;DHT22;35067;48.134;8.378;2022-09-27T12:28:40;7.60;99.90
49236;DHT22;35067;48.134;8.378;2022-09-27T12:30:47;7.40;99.90
49236;DHT22;35067;48.134;8.378;2022-09-27T12:33:22;7.50;99.90
49236;DHT22;35067;48.134;8.378;2022-09-27T12:35:31;7.40;99.90
49236;DHT22;35067;48.134;8.378;2022-09-27T12:37:58;7.30;99.90
49236;DHT22;35067;48.134;8.378;2022-09-27T12:40:17;7.20;99.90
49236;DHT22;35067;48.134;8.378;2022-09-27T12:42:24;7.30;99.90
49236;DHT22;35067;48.134;8.378;2022-09-27T12:44:27;7.70;99.90
49236;DHT22;35067;48.134;8.378;2022-09-27T12:46:43;8.00;99.90
49236;DHT22;35067;48.134;8.378;2022-09-27T12:49:05;8.60;99.90
49236;DHT22;35067;48.134;8.378;2022-09-27T12:51:11;9.80;99.90
49236;DHT22;35067;48.134;8.378;2022-09-27T12:55:41;9.40;98.30
49236;DHT22;35067;48.134;8.378;2022-09-27T12:57:50;8.80;99.90
49236;DHT22;35067;48.134;8.378;2022-09-27T13:04:45;8.40;99.90
49236;DHT22;35067;48.134;8.378;2022-09-27T13:10:01;8.20;99.90
49236;DHT22;35067;48.134;8.378;2022-09-27T13:12:14;8.00;99.90
49236;DHT22;35067;48.134;8.378;2022-09-27T13:14:20;8.00;99.90
49236;DHT22;35067;48.134;8.378;2022-09-27T13:16:22;8.00;99.90
49236;DHT22;35067;48.134;8.378;2022-09-27T13:22:37;7.70;99.90
49236;DHT22;35067;48.134;8.378;2022-09-27T13:26:42;7.60;99.90
49236;DHT22;35067;48.134;8.378;2022-09-27T13:30:47;7.50;99.90
49236;DHT22;35067;48.134;8.378;2022-09-27T13:35:20;7.70;99.90
49236;DHT22;35067;48.134;8.378;2022-09-27T13:39:43;8.00;99.90
49236;DHT22;35067;48.134;8.378;2022-09-27T13:46:19;8.00;99.90
49236;DHT22;35067;48.134;8.378;2022-09-27T13:48:31;8.10;99.90
49236;DHT22;35067;48.134;8.378;2022-09-27T13:50:50;9.00;99.90
49236;DHT22;35067;48.134;8.378;2022-09-27T13:55:44;10.70;99.90
49236;DHT22;35067;48.134;8.378;2022-09-27T13:57:46;10.20;99.00
49236;DHT22;35067;48.134;8.378;2022-09-27T13:59:49;9.70;99.90
49236;DHT22;35067;48.134;8.378;2022-09-27T14:02:15;9.50;99.90
49236;DHT22;35067;48.134;8.378;2022-09-27T14:04:41;9.40;99.90
49236;DHT22;35067;48.134;8.378;2022-09-27T14:06:47;8.70;99.90
49236;DHT22;35067;48.134;8.378;2022-09-27T14:08:56;8.50;99.90
49236;DHT22;35067;48.134;8.378;2022-09-27T14:10:58;8.60;99.90
49236;DHT22;35067;48.134;8.378;2022-09-27T14:13:02;9.10;99.90
49236;DHT22;35067;48.134;8.378;2022-09-27T14:15:06;8.80;99.90
49236;DHT22;35067;48.134;8.378;2022-09-27T14:17:09;8.40;99.90
49236;DHT22;35067;48.134;8.378;2022-09-27T14:19:14;8.10;99.90
49236;DHT22;35067;48.134;8.378;2022-09-27T14:23:26;7.60;99.90
49236;DHT22;35067;48.134;8.378;2022-09-27T14:25:26;7.50;99.90
49236;DHT22;35067;48.134;8.378;2022-09-27T14:27:31;7.20;99.90
49236;DHT22;35067;48.134;8.378;2022-09-27T14:29:41;7.10;99.90
49236;DHT22;35067;48.134;8.378;2022-09-27T14:31:44;7.00;99.90
49236;DHT22;35067;48.134;8.378;2022-09-27T14:33:44;7.00;99.90
49236;DHT22;35067;48.134;8.378;2022-09-27T14:35:47;7.00;99.90
49236;DHT22;35067;48.134;8.378;2022-09-27T14:38:13;7.20;99.90
49236;DHT22;35067;48.134;8.378;2022-09-27T14:40:19;7.20;99.90
49236;DHT22;35067;48.134;8.378;2022-09-27T14:42:23;7.40;99.90
49236;DHT22;35067;48.134;8.378;2022-09-27T14:44:25;7.40;99.90
49236;DHT22;35067;48.134;8.378;2022-09-27T14:46:28;7.30;99.90
49236;DHT22;35067;48.134;8.378;2022-09-27T14:48:37;7.40;99.90
49236;DHT22;35067;48.134;8.378;2022-09-27T14:50:38;7.40;99.90
49236;DHT22;35067;48.134;8.378;2022-09-27T14:52:39;7.40;99.90
49236;DHT22;35067;48.134;8.378;2022-09-27T14:54:40;7.30;99.90
49236;DHT22;35067;48.134;8.378;2022-09-27T14:56:40;7.30;99.90
49236;DHT22;35067;48.134;8.378;2022-09-27T14:58:41;7.30;99.90
49236;DHT22;35067;48.134;8.378;2022-09-27T15:00:47;7.40;99.90
49236;DHT22;35067;48.134;8.378;2022-09-27T15:02:49;7.50;99.90
49236;DHT22;35067;48.134;8.378;2022-09-27T15:04:54;7.70;99.90
49236;DHT22;35067;48.134;8.378;2022-09-27T15:06:55;7.90;99.90
49236;DHT22;35067;48.134;8.378;2022-09-27T15:08:57;9.10;99.90
49236;DHT22;35067;48.134;8.378;2022-09-27T15:11:08;9.40;99.90
49236;DHT22;35067;48.134;8.378;2022-09-27T15:13:14;9.20;99.90
49236;DHT22;35067;48.134;8.378;2022-09-27T15:15:20;9.00;99.90
49236;DHT22;35067;48.134;8.378;2022-09-27T15:17:21;8.80;99.90
49236;DHT22;35067;48.134;8.378;2022-09-27T15:19:24;8.60;99.90
49236;DHT22;35067;48.134;8.378;2022-09-27T15:21:29;8.40;99.90
49236;DHT22;35067;48.134;8.378;2022-09-27T15:23:36;8.30;99.90
49236;DHT22;35067;48.134;8.378;2022-09-27T15:25:41;8.20;99.90
49236;DHT22;35067;48.134;8.378;2022-09-27T15:27:52;8.20;99.90
49236;DHT22;35067;48.134;8.378;2022-09-27T15:29:55;8.10;99.90
49236;DHT22;35067;48.134;8.378;2022-09-27T15:32:02;8.00;99.90